CheckWX is a tool to help pilots better visualize weather data.  It is not intended as a substitute for an official pre-flight weather briefing.

07:56:10 UTC

PANI METAR
Aniak Airport
Aniak, Alaska, USA
Current

60 mins ago

PANI 190656Z AUTO 06004KT 10SM CLR M21/M24 A2957 RMK AO2 SLP019 T12111239 FZRANO
Observed
Jan-19 @ 06:56 UTC
Wind
  • 060° at 4 KTS
Visibility
10 SM
Flight Rules
VFR
Cloud Levels
  • Clear skies
Temperature
-21°C / -6°F
Dewpoint
-24°C / -11°F
Humidity
77%
Altimeter
29.57" Hg
Pressure
1001.32 hPa
Previous

2 hours ago

PANI 190556Z AUTO 05005KT 10SM SCT070 M21/M24 A2957 RMK AO2 SLP019 T12111239 11189 21233 56005 FZRANO
Observed
Jan-19 @ 05:56 UTC
Wind
  • 050° at 5 KTS
Visibility
10 SM
Flight Rules
VFR
Cloud Levels
  • Scattered at 7,000' AGL
Temperature
-21°C / -6°F
Dewpoint
-24°C / -11°F
Humidity
77%
Altimeter
29.57" Hg
Pressure
1001.32 hPa
Previous

3 hours ago

PANI 190456Z AUTO 00000KT 10SM CLR M23/M26 A2957 RMK AO2 SLP019 T12281256 FZRANO
Observed
Jan-19 @ 04:56 UTC
Visibility
10 SM
Flight Rules
VFR
Cloud Levels
  • Clear skies
Temperature
-23°C / -9°F
Dewpoint
-26°C / -15°F
Humidity
77%
Altimeter
29.57" Hg
Pressure
1001.32 hPa